Time;durP1;ratioP1;P1;durP2;ratioP2;P2;SDS_P1;SDS_P2;PMS_P1;PMS_P2;Temp;Humidity;BMP_temperature;BMP_pressure;BME280_temperature;BME280_humidity;BME280_pressure;Samples;Min_cycle;Max_cycle;Signal;HPM_P1;HPM_P2
2022/07/17 00:01:49;;;;;;;4.10;1.95;;;;;;;18.42;49.01;97324.94;5034725;28;20034;-63
2022/07/17 00:04:15;;;;;;;2.63;1.40;;;;;;;18.40;48.80;97318.22;5035397;28;20040;-63
2022/07/17 00:06:40;;;;;;;7.63;1.88;;;;;;;18.44;48.68;97319.78;5025644;28;20040;-65
2022/07/17 00:09:06;;;;;;;4.25;1.83;;;;;;;18.37;48.93;97322.59;5014742;28;20061;-62
2022/07/17 00:11:31;;;;;;;3.92;1.83;;;;;;;18.50;48.27;97312.59;5015861;28;20641;-65
2022/07/17 00:13:56;;;;;;;9.05;2.30;;;;;;;18.63;47.57;97315.69;5015268;28;20089;-64
2022/07/17 00:16:22;;;;;;;3.45;1.70;;;;;;;18.55;47.72;97322.50;5014105;28;20040;-64
2022/07/17 00:18:48;;;;;;;5.35;1.63;;;;;;;18.47;48.14;97320.94;5014698;28;20085;-64
2022/07/17 00:21:14;;;;;;;5.40;1.65;;;;;;;18.57;47.70;97328.44;4996367;28;20133;-63
2022/07/17 00:23:40;;;;;;;3.53;2.05;;;;;;;18.56;47.55;97328.81;5012822;28;20100;-65
2022/07/17 00:26:05;;;;;;;9.07;2.00;;;;;;;18.57;47.77;97331.19;5012310;28;20482;-63
2022/07/17 00:28:31;;;;;;;3.83;1.58;;;;;;;18.65;47.23;97331.94;5013092;28;20034;-63
2022/07/17 00:30:56;;;;;;;5.03;2.08;;;;;;;18.55;47.72;97330.81;5012839;28;20092;-64
2022/07/17 00:33:22;;;;;;;3.33;1.80;;;;;;;18.57;47.53;97327.66;5012555;28;20022;-65
2022/07/17 00:35:47;;;;;;;2.50;1.27;;;;;;;18.53;47.64;97325.66;5012119;28;20426;-65
2022/07/17 00:38:13;;;;;;;5.07;1.70;;;;;;;18.67;47.00;97326.78;5012401;28;20041;-64
2022/07/17 00:40:39;;;;;;;2.92;1.65;;;;;;;18.72;46.85;97329.13;5012238;28;20034;-64
2022/07/17 00:43:04;;;;;;;5.72;1.77;;;;;;;18.72;46.83;97324.38;5012214;28;20080;-64
2022/07/17 00:45:30;;;;;;;3.38;1.73;;;;;;;18.60;47.09;97330.41;5011215;28;20034;-63
2022/07/17 00:48:10;;;;;;;3.78;1.70;;;;;;;18.66;46.73;97337.09;5012335;28;20039;-64
2022/07/17 00:50:37;;;;;;;;;;;;;;;18.48;47.71;97328.88;5012783;28;20052;-64
2022/07/17 00:53:04;;;;;;;3.47;1.75;;;;;;;18.57;46.98;97331.19;5012089;28;19913;-64
2022/07/17 00:55:30;;;;;;;8.70;1.73;;;;;;;18.51;47.18;97325.28;5011983;28;20036;-64
2022/07/17 00:57:57;;;;;;;3.58;1.50;;;;;;;18.51;47.12;97325.28;5011997;28;20130;-64
2022/07/17 01:00:23;;;;;;;5.57;1.80;;;;;;;18.49;47.41;97324.91;5012832;28;20029;-63
2022/07/17 01:02:53;;;;;;;4.28;1.70;;;;;;;18.43;47.65;97329.28;5012749;28;20104;-64
2022/07/17 01:05:20;;;;;;;5.57;1.75;;;;;;;18.31;48.04;97325.00;5013243;28;20471;-63
2022/07/17 01:07:47;;;;;;;4.57;1.83;;;;;;;18.30;48.15;97320.63;5030770;28;20088;-64
2022/07/17 01:10:13;;;;;;;3.33;1.55;;;;;;;18.19;48.70;97319.09;5029286;28;20591;-63
2022/07/17 01:12:40;;;;;;;3.85;1.85;;;;;;;18.18;48.39;97323.84;5028136;28;20031;-64
2022/07/17 01:15:08;;;;;;;3.92;1.65;;;;;;;18.15;48.75;97316.34;5024239;28;20037;-63
2022/07/17 01:17:34;;;;;;;5.10;1.77;;;;;;;18.21;48.30;97309.19;5023731;28;20037;-64
2022/07/17 01:20:02;;;;;;;4.88;2.45;;;;;;;18.07;49.01;97315.56;5018570;28;20053;-64
2022/07/17 01:22:28;;;;;;;3.80;1.98;;;;;;;17.93;49.59;97316.41;5026738;28;20072;-62
2022/07/17 01:24:53;;;;;;;10.63;2.00;;;;;;;17.88;49.83;97314.06;5019530;28;20053;-64
2022/07/17 01:27:19;;;;;;;3.90;1.60;;;;;;;17.89;49.71;97314.84;5015322;28;20037;-63
2022/07/17 01:29:44;;;;;;;8.55;2.38;;;;;;;17.92;49.26;97319.59;5019958;28;21014;-63
2022/07/17 01:32:10;;;;;;;10.20;2.55;;;;;;;17.88;49.74;97316.00;5022697;28;20053;-63
2022/07/17 01:34:36;;;;;;;4.78;1.58;;;;;;;17.87;49.70;97315.22;5013309;28;20410;-62
2022/07/17 01:37:01;;;;;;;6.18;1.88;;;;;;;17.85;49.94;97316.81;5011127;28;20041;-62
2022/07/17 01:42:11;;;;;;;3.40;1.58;;;;;;;17.76;50.02;97315.22;5011787;28;20084;-62
2022/07/17 01:44:36;;;;;;;6.22;1.80;;;;;;;17.75;50.07;97310.91;5023968;28;20029;-63
2022/07/17 01:47:03;;;;;;;6.43;2.40;;;;;;;17.78;49.97;97315.63;5032223;28;20482;-61
2022/07/17 01:49:28;;;;;;;2.67;1.77;;;;;;;17.68;50.23;97313.69;5013768;28;20037;-60
2022/07/17 01:51:57;;;;;;;4.68;1.58;;;;;;;17.68;50.09;97310.09;5011384;28;20034;-61
2022/07/17 01:54:22;;;;;;;3.58;1.75;;;;;;;17.64;50.28;97312.88;5023511;28;20045;-62
2022/07/17 01:56:47;;;;;;;5.97;1.80;;;;;;;17.64;50.41;97309.31;5020929;28;20034;-61
2022/07/17 01:59:13;;;;;;;4.80;2.10;;;;;;;17.53;50.92;97306.56;5022640;28;20079;-61
2022/07/17 02:01:38;;;;;;;3.97;1.98;;;;;;;17.49;50.89;97300.25;5019835;28;20061;-62
2022/07/17 02:04:04;;;;;;;6.85;2.25;;;;;;;17.44;51.32;97314.50;5016924;28;20502;-61
2022/07/17 02:06:29;;;;;;;5.63;2.05;;;;;;;17.43;51.14;97304.59;5010550;28;20676;-62
2022/07/17 02:08:55;;;;;;;5.05;1.80;;;;;;;17.33;51.67;97314.50;5011657;28;20549;-61
2022/07/17 02:11:20;;;;;;;7.25;2.35;;;;;;;17.33;51.57;97308.97;5019037;28;20452;-61
2022/07/17 02:13:45;;;;;;;5.32;2.00;;;;;;;17.34;51.59;97318.84;5030543;28;20518;-62
2022/07/17 02:16:11;;;;;;;11.13;4.60;;;;;;;17.19;52.27;97316.06;5030464;28;20044;-62
2022/07/17 02:18:36;;;;;;;5.20;2.25;;;;;;;17.23;51.87;97307.78;5018276;28;20037;-61
2022/07/17 02:21:02;;;;;;;3.90;2.03;;;;;;;17.17;52.36;97317.66;5018803;28;20038;-62
2022/07/17 02:23:28;;;;;;;6.97;2.22;;;;;;;17.18;52.11;97311.75;5010978;28;20026;-62
2022/07/17 02:25:54;;;;;;;4.80;2.20;;;;;;;17.20;52.10;97309.38;5039920;28;20113;-61
2022/07/17 02:28:20;;;;;;;6.65;1.50;;;;;;;17.25;51.81;97310.16;5024817;28;20030;-62
2022/07/17 02:30:46;;;;;;;6.47;1.98;;;;;;;17.18;52.04;97310.97;5016733;28;20037;-62
2022/07/17 02:33:12;;;;;;;5.15;2.35;;;;;;;17.17;52.01;97312.13;5019007;28;20061;-62
2022/07/17 02:35:37;;;;;;;3.75;2.08;;;;;;;17.23;51.43;97307.78;5010799;28;20108;-61
2022/07/17 02:38:03;;;;;;;3.05;1.98;;;;;;;17.24;51.58;97305.81;5021721;28;20028;-61
2022/07/17 02:40:28;;;;;;;5.32;1.85;;;;;;;17.24;51.70;97314.13;5013651;28;20049;-63
2022/07/17 02:42:54;;;;;;;7.50;2.03;;;;;;;17.34;50.89;97305.00;5010562;28;20044;-59
2022/07/17 02:45:24;;;;;;;6.72;1.90;;;;;;;17.38;50.42;97309.34;5020783;28;20104;-63
2022/07/17 02:47:50;;;;;;;3.67;1.92;;;;;;;17.39;50.46;97308.19;5025625;28;20038;-62
2022/07/17 02:50:16;;;;;;;7.43;2.42;;;;;;;17.35;50.75;97309.34;5010867;28;20087;-62
2022/07/17 02:52:43;;;;;;;6.38;2.70;;;;;;;17.38;50.63;97303.81;5019228;28;20483;-63
2022/07/17 02:55:09;;;;;;;5.53;2.42;;;;;;;17.34;50.48;97303.03;5028436;28;20040;-63
2022/07/17 02:57:36;;;;;;;5.18;2.17;;;;;;;17.33;50.79;97311.72;5026496;28;20037;-62
2022/07/17 03:00:07;;;;;;;5.32;2.45;;;;;;;17.39;50.54;97305.41;5030622;28;20052;-62
2022/07/17 03:02:34;;;;;;;4.75;1.92;;;;;;;17.35;50.61;97306.59;5018560;28;20062;-62
2022/07/17 03:04:59;;;;;;;4.68;2.13;;;;;;;17.47;49.85;97306.19;5028422;28;20160;-62
2022/07/17 03:07:25;;;;;;;5.30;2.47;;;;;;;17.40;50.36;97300.66;5021916;28;20169;-60
2022/07/17 03:09:50;;;;;;;3.75;1.88;;;;;;;17.45;49.79;97297.50;5019977;28;20095;-62
2022/07/17 03:12:16;;;;;;;5.90;2.10;;;;;;;17.43;50.28;97302.63;5025606;28;20034;-62
2022/07/17 03:14:41;;;;;;;5.72;2.40;;;;;;;17.44;50.13;97300.66;5032730;28;20033;-62
2022/07/17 03:17:07;;;;;;;5.47;1.90;;;;;;;17.38;50.25;97303.81;5015500;28;20041;-63
2022/07/17 03:19:33;;;;;;;4.45;2.30;;;;;;;17.32;50.52;97294.34;5024127;28;20112;-61
2022/07/17 03:21:59;;;;;;;4.22;2.20;;;;;;;17.31;50.50;97300.28;5018570;28;20029;-61
2022/07/17 03:24:24;;;;;;;4.32;1.92;;;;;;;17.48;49.79;97299.44;5023135;28;20056;-62
2022/07/17 03:26:50;;;;;;;6.50;2.78;;;;;;;17.53;49.42;97293.50;5021147;28;20060;-62
2022/07/17 03:29:18;;;;;;;4.78;2.10;;;;;;;17.50;49.68;97296.28;5023347;28;20030;-61
2022/07/17 03:31:45;;;;;;;5.05;2.20;;;;;;;17.43;49.96;97291.56;5025730;28;20100;-61
2022/07/17 03:34:10;;;;;;;5.78;1.90;;;;;;;17.39;50.02;97291.56;5028120;28;20040;-65
2022/07/17 03:36:36;;;;;;;6.20;2.17;;;;;;;17.27;50.65;97303.03;5024803;28;20037;-64
2022/07/17 03:39:01;;;;;;;4.95;2.50;;;;;;;17.15;51.25;97295.91;5020665;28;20033;-61
2022/07/17 03:41:27;;;;;;;6.55;2.33;;;;;;;17.11;51.53;97300.66;5013469;28;20037;-63
2022/07/17 03:43:52;;;;;;;8.98;2.17;;;;;;;16.99;52.17;97290.78;5021344;28;20476;-62
2022/07/17 03:46:17;;;;;;;9.57;2.22;;;;;;;16.99;51.94;97281.69;5022453;28;20026;-63
2022/07/17 03:48:43;;;;;;;3.40;2.03;;;;;;;16.97;52.04;97282.06;5026266;28;20495;-62
2022/07/17 03:51:08;;;;;;;4.45;2.13;;;;;;;16.95;52.09;97280.91;5022792;28;20034;-63
2022/07/17 03:53:34;;;;;;;4.07;2.10;;;;;;;16.95;52.16;97278.91;5015543;28;20041;-61
2022/07/17 03:55:59;;;;;;;10.15;2.90;;;;;;;16.88;52.94;97291.97;5025924;28;20022;-64
2022/07/17 03:58:24;;;;;;;4.18;2.15;;;;;;;16.82;52.89;97288.78;5022434;28;20497;-61
2022/07/17 04:00:50;;;;;;;4.50;2.33;;;;;;;16.85;52.53;97288.00;5026173;28;20108;-63
2022/07/17 04:03:15;;;;;;;6.32;1.88;;;;;;;16.69;53.69;97285.59;5021612;28;20029;-61
2022/07/17 04:05:40;;;;;;;6.90;2.45;;;;;;;16.78;52.97;97294.28;5018698;28;20040;-61
2022/07/17 04:08:06;;;;;;;11.02;2.38;;;;;;;16.74;53.65;97290.72;5023743;28;20437;-62
2022/07/17 04:10:31;;;;;;;4.60;2.40;;;;;;;16.80;53.15;97289.16;5015465;28;20053;-63
2022/07/17 04:12:58;;;;;;;5.60;2.30;;;;;;;16.84;53.11;97283.66;5018509;28;20029;-63
2022/07/17 04:18:07;;;;;;;6.05;2.05;;;;;;;16.79;53.67;97295.88;5034331;28;20402;-64
2022/07/17 04:20:33;;;;;;;7.18;2.55;;;;;;;16.82;53.40;97299.84;5033720;28;20048;-63
2022/07/17 04:22:59;;;;;;;3.25;2.30;;;;;;;16.90;52.79;97308.97;5042272;28;20492;-63
2022/07/17 04:25:24;;;;;;;5.30;2.17;;;;;;;16.86;53.54;97311.72;5028895;28;20566;-64
2022/07/17 04:27:50;;;;;;;5.63;2.47;;;;;;;16.91;53.42;97311.34;5031850;28;20034;-63
2022/07/17 04:30:15;;;;;;;7.25;2.20;;;;;;;16.92;53.55;97306.59;5019744;28;20379;-61
2022/07/17 04:32:41;;;;;;;6.55;2.58;;;;;;;16.94;53.39;97306.97;5024113;28;20075;-62
2022/07/17 04:35:06;;;;;;;9.00;2.60;;;;;;;17.01;53.37;97301.44;5023568;28;20033;-64
2022/07/17 04:37:32;;;;;;;6.25;2.30;;;;;;;17.05;53.36;97306.97;5014341;28;20117;-63
2022/07/17 04:39:57;;;;;;;4.55;2.15;;;;;;;17.02;53.49;97307.78;5012465;28;20434;-62
2022/07/17 04:42:22;;;;;;;6.80;2.20;;;;;;;16.99;53.94;97301.06;5019453;28;20409;-62
2022/07/17 04:44:48;;;;;;;6.18;2.45;;;;;;;17.09;53.07;97291.19;5020891;28;20033;-66
2022/07/17 04:47:13;;;;;;;3.92;2.08;;;;;;;17.06;53.51;97291.97;5036551;28;20030;-63
2022/07/17 04:49:39;;;;;;;3.05;2.20;;;;;;;17.09;53.73;97302.25;5030984;28;20851;-63
2022/07/17 04:52:04;;;;;;;5.28;2.60;;;;;;;17.15;53.36;97303.44;5031954;28;20029;-61
2022/07/17 04:54:29;;;;;;;4.60;2.30;;;;;;;17.20;52.57;97294.75;5031590;28;20065;-64
2022/07/17 04:56:55;;;;;;;3.33;2.10;;;;;;;17.24;53.29;97314.13;5031287;28;20103;-61
2022/07/17 04:59:20;;;;;;;4.07;2.40;;;;;;;17.39;52.56;97304.59;5021601;28;20053;-64
2022/07/17 05:01:46;;;;;;;3.85;2.30;;;;;;;17.39;52.99;97305.41;5042338;28;20026;-64
2022/07/17 05:04:11;;;;;;;5.60;2.38;;;;;;;17.65;52.45;97303.38;5031190;28;20025;-61
2022/07/17 05:06:37;;;;;;;3.97;2.40;;;;;;;18.13;50.36;97299.31;5031182;28;20153;-63
2022/07/17 05:09:02;;;;;;;4.57;2.30;;;;;;;18.24;51.16;97304.81;5030980;28;20026;-61
2022/07/17 05:11:27;;;;;;;5.10;2.00;;;;;;;18.57;50.07;97311.78;5022201;28;20025;-64
2022/07/17 05:13:53;;;;;;;5.95;1.92;;;;;;;18.54;50.16;97312.59;5022754;28;20100;-64
2022/07/17 05:16:18;;;;;;;5.28;1.83;;;;;;;18.90;49.36;97304.84;5031177;28;20174;-64
2022/07/17 05:18:44;;;;;;;3.20;2.30;;;;;;;19.30;47.99;97310.09;5016861;28;20042;-62
2022/07/17 05:21:09;;;;;;;5.28;2.45;;;;;;;19.59;47.71;97313.44;5025347;28;20029;-65
2022/07/17 05:23:34;;;;;;;6.22;2.40;;;;;;;19.26;47.72;97301.81;5021567;28;20508;-62
2022/07/17 05:26:00;;;;;;;4.85;1.90;;;;;;;19.83;47.25;97319.97;5010068;28;20030;-64
2022/07/17 05:28:26;;;;;;;3.42;1.73;;;;;;;20.03;46.69;97311.03;5014104;28;20427;-64
2022/07/17 05:30:51;;;;;;;5.32;2.00;;;;;;;19.88;46.40;97315.94;5041952;28;20033;-63
2022/07/17 05:33:16;;;;;;;4.35;2.10;;;;;;;19.90;46.34;97301.63;5019710;28;20173;-63
2022/07/17 05:35:42;;;;;;;5.43;2.15;;;;;;;20.13;45.54;97315.69;5019046;28;20041;-64
2022/07/17 05:38:09;;;;;;;3.40;1.65;;;;;;;19.97;46.18;97321.00;5010395;28;20061;-64
2022/07/17 05:40:35;;;;;;;3.88;1.95;;;;;;;20.70;45.21;97313.38;5014953;28;20370;-64
2022/07/17 05:43:00;;;;;;;7.90;2.17;;;;;;;20.65;44.80;97316.63;5016504;28;20037;-62
2022/07/17 05:45:25;;;;;;;4.32;1.77;;;;;;;20.87;44.99;97317.09;5027162;28;20389;-64
2022/07/17 05:47:51;;;;;;;3.92;1.80;;;;;;;21.63;42.37;97317.50;5022683;28;20116;-60
2022/07/17 05:50:16;;;;;;;4.88;1.83;;;;;;;21.69;42.32;97317.81;5015416;28;20045;-63
2022/07/17 05:52:42;;;;;;;6.28;2.05;;;;;;;21.52;43.44;97323.28;5019511;28;20049;-62
2022/07/17 05:55:07;;;;;;;4.35;1.80;;;;;;;22.89;40.74;97326.94;5019550;28;20104;-60
2022/07/17 05:57:33;;;;;;;3.88;1.90;;;;;;;22.27;42.25;97326.69;5015368;28;20036;-62
2022/07/17 05:59:58;;;;;;;3.95;1.95;;;;;;;22.31;42.00;97332.19;5024244;28;20144;-62
2022/07/17 06:02:24;;;;;;;5.68;2.78;;;;;;;23.33;40.48;97335.13;5030765;28;20095;-63
2022/07/17 06:04:49;;;;;;;3.95;1.70;;;;;;;22.74;41.37;97336.84;5019421;28;20112;-62
2022/07/17 06:07:15;;;;;;;3.97;2.10;;;;;;;23.36;38.99;97337.06;5023027;28;20364;-63
2022/07/17 06:09:40;;;;;;;5.65;1.75;;;;;;;22.91;38.95;97323.72;5020132;28;20026;-61
2022/07/17 06:12:06;;;;;;;5.55;1.90;;;;;;;21.91;41.12;97324.56;5012714;28;20048;-63
2022/07/17 06:14:31;;;;;;;3.83;1.80;;;;;;;21.37;43.49;97330.25;5022089;28;20026;-62
2022/07/17 06:16:57;;;;;;;4.50;2.00;;;;;;;21.79;43.62;97319.63;5045008;28;20052;-62
2022/07/17 06:19:22;;;;;;;5.18;1.67;;;;;;;22.36;41.94;97320.50;5030702;28;20025;-61
2022/07/17 06:21:47;;;;;;;6.38;1.75;;;;;;;22.20;42.07;97326.00;5026593;28;20038;-62
2022/07/17 06:24:13;;;;;;;5.72;2.20;;;;;;;21.70;42.41;97322.97;5019137;28;20076;-59
2022/07/17 06:26:38;;;;;;;2.97;1.65;;;;;;;21.48;42.96;97321.75;5017718;28;20057;-63
2022/07/17 06:29:04;;;;;;;2.63;1.60;;;;;;;21.93;41.74;97327.72;5021016;28;20034;-61
2022/07/17 06:31:29;;;;;;;4.57;1.80;;;;;;;21.45;43.18;97325.38;5029358;28;20037;-63
2022/07/17 06:33:54;;;;;;;3.92;1.80;;;;;;;21.38;43.78;97332.63;5030091;28;20045;-60
2022/07/17 06:36:20;;;;;;;4.80;1.60;;;;;;;21.23;43.21;97322.94;5019673;28;20037;-62
2022/07/17 06:38:45;;;;;;;5.65;1.85;;;;;;;21.36;43.34;97329.47;5024904;28;20034;-62
2022/07/17 06:41:11;;;;;;;5.88;2.08;;;;;;;21.52;42.51;97336.44;5019665;28;20038;-63
2022/07/17 06:43:36;;;;;;;5.13;1.92;;;;;;;21.85;42.92;97325.47;5018920;28;20053;-62
2022/07/17 06:46:01;;;;;;;6.88;3.40;;;;;;;21.88;42.36;97338.59;5013853;28;20041;-60
2022/07/17 06:48:27;;;;;;;4.10;1.83;;;;;;;23.18;39.49;97343.09;5001926;28;20084;-62
2022/07/17 06:50:52;;;;;;;4.55;2.03;;;;;;;22.88;39.86;97339.34;5003337;28;20070;-62
2022/07/17 06:53:18;;;;;;;4.78;2.05;;;;;;;22.01;42.28;97335.94;5000142;28;20560;-64
2022/07/17 06:55:43;;;;;;;9.30;2.13;;;;;;;21.96;41.90;97342.78;5013006;28;20068;-62
2022/07/17 06:58:09;;;;;;;5.38;2.03;;;;;;;22.26;41.41;97347.44;5013886;28;20038;-64
2022/07/17 07:00:34;;;;;;;3.10;1.80;;;;;;;21.91;42.87;97346.06;5032137;28;20061;-60
2022/07/17 07:03:00;;;;;;;3.53;1.73;;;;;;;22.09;43.12;97349.34;5010766;28;20071;-64
2022/07/17 07:05:25;;;;;;;6.22;2.03;;;;;;;22.04;42.29;97344.25;5002039;28;20038;-62
2022/07/17 07:07:50;;;;;;;3.30;1.60;;;;;;;22.17;42.57;97340.81;5002066;28;20069;-63
2022/07/17 07:10:16;;;;;;;4.95;1.88;;;;;;;22.24;42.68;97347.03;5006120;28;20041;-62
2022/07/17 07:12:42;;;;;;;3.60;2.08;;;;;;;23.25;39.98;97348.50;5013861;28;20570;-64
2022/07/17 07:15:07;;;;;;;7.30;1.88;;;;;;;23.09;40.59;97354.84;5020462;28;20053;-63
2022/07/17 07:17:36;;;;;;;4.80;1.90;;;;;;;23.12;40.83;97358.00;5022110;28;20211;-64
2022/07/17 07:20:04;;;;;;;6.05;2.05;;;;;;;22.96;40.56;97353.94;5016295;28;20449;-65
2022/07/17 07:22:31;;;;;;;2.95;1.42;;;;;;;23.43;40.87;97355.69;5023421;28;20052;-64
2022/07/17 07:24:56;;;;;;;4.30;1.83;;;;;;;23.92;39.37;97363.25;5022909;28;20482;-63
2022/07/17 07:27:22;;;;;;;4.38;1.70;;;;;;;22.86;40.99;97361.31;5016530;28;20103;-62
2022/07/17 07:29:47;;;;;;;4.47;1.83;;;;;;;23.00;41.10;97354.63;5018062;28;20057;-62
2022/07/17 07:32:13;;;;;;;8.98;3.97;;;;;;;22.74;41.50;97352.81;5010318;28;20073;-64
2022/07/17 07:34:38;;;;;;;4.47;2.25;;;;;;;22.85;41.13;97356.97;5022339;28;20048;-63
2022/07/17 07:37:04;;;;;;;3.80;1.85;;;;;;;23.10;40.30;97352.84;5019972;28;20538;-66
2022/07/17 07:39:30;;;;;;;3.03;1.88;;;;;;;23.36;40.34;97355.84;5036607;28;20068;-65
2022/07/17 07:41:56;;;;;;;3.60;1.90;;;;;;;23.12;40.81;97358.00;5023579;28;20045;-65
2022/07/17 07:44:21;;;;;;;4.28;1.75;;;;;;;24.28;39.37;97359.50;5014187;28;20518;-65
2022/07/17 07:46:46;;;;;;;3.15;1.65;;;;;;;24.54;38.81;97363.19;5013777;28;20444;-65
2022/07/17 07:49:12;;;;;;;3.67;1.70;;;;;;;24.78;38.10;97366.50;5010912;28;20053;-63
2022/07/17 07:51:37;;;;;;;3.95;1.60;;;;;;;23.66;39.40;97355.50;5012581;28;20045;-65
2022/07/17 07:54:03;;;;;;;3.25;1.50;;;;;;;23.87;39.07;97358.19;5007463;28;20077;-66
2022/07/17 07:56:28;;;;;;;5.22;1.70;;;;;;;23.88;39.14;97359.75;5002689;28;20076;-65
2022/07/17 07:58:54;;;;;;;3.03;1.60;;;;;;;23.26;41.47;97357.66;5000502;28;20038;-65
2022/07/17 08:01:19;;;;;;;2.85;1.50;;;;;;;23.96;39.83;97356.34;5007773;28;20064;-65
2022/07/17 08:03:44;;;;;;;4.00;2.00;;;;;;;23.92;38.98;97369.63;5036572;28;20057;-63
2022/07/17 08:06:10;;;;;;;5.40;1.90;;;;;;;23.62;39.59;97363.19;5015422;28;20065;-63
2022/07/17 08:08:35;;;;;;;4.25;1.92;;;;;;;23.88;39.77;97374.53;5012736;28;20130;-66
2022/07/17 08:11:01;;;;;;;4.65;1.63;;;;;;;24.07;39.05;97372.84;5022557;28;20041;-62
2022/07/17 08:13:26;;;;;;;5.15;1.67;;;;;;;24.77;38.52;97373.31;5010049;28;20044;-64
2022/07/17 08:15:52;;;;;;;4.18;1.60;;;;;;;24.76;38.11;97371.75;5018611;28;20050;-64
2022/07/17 08:18:17;;;;;;;4.35;1.88;;;;;;;25.11;37.31;97367.06;4996139;28;20037;-65
2022/07/17 08:20:43;;;;;;;4.55;1.80;;;;;;;24.68;36.86;97373.97;5002400;28;20041;-64
2022/07/17 08:23:08;;;;;;;3.30;1.52;;;;;;;25.23;36.88;97367.50;4999264;28;20104;-64
2022/07/17 08:25:35;;;;;;;4.97;2.00;;;;;;;26.02;36.56;97362.97;5002341;28;20103;-64
2022/07/17 08:28:00;;;;;;;5.88;1.70;;;;;;;25.47;37.51;97368.00;5003948;28;20049;-64
2022/07/17 08:30:26;;;;;;;3.40;1.88;;;;;;;25.70;36.07;97367.63;5006688;28;20049;-66
2022/07/17 08:32:53;;;;;;;4.25;1.52;;;;;;;25.61;36.03;97363.94;5037077;28;20128;-65
2022/07/17 08:35:19;;;;;;;2.60;1.52;;;;;;;24.46;37.68;97376.56;5027910;28;20389;-65
2022/07/17 08:37:50;;;;;;;2.97;1.67;;;;;;;24.59;38.29;97382.25;5021902;28;20046;-65
2022/07/17 08:40:25;;;;;;;5.78;1.80;;;;;;;25.55;37.48;97374.91;5017922;28;20446;-65
2022/07/17 08:42:52;;;;;;;5.75;1.60;;;;;;;25.54;37.23;97379.75;5022078;28;20046;-65
2022/07/17 08:45:18;;;;;;;2.50;1.55;;;;;;;25.27;36.86;97380.22;5010969;28;20488;-63
2022/07/17 08:47:43;;;;;;;5.45;1.85;;;;;;;25.35;36.58;97380.78;5019146;28;20041;-66
2022/07/17 08:50:11;;;;;;;3.00;1.30;;;;;;;25.73;36.32;97385.56;5017482;28;20581;-67
2022/07/17 08:52:38;;;;;;;2.05;1.40;;;;;;;25.76;35.70;97387.47;5021367;28;20060;-67
2022/07/17 08:55:09;;;;;;;3.40;1.85;;;;;;;24.83;36.35;97388.34;5018909;28;20041;-63
2022/07/17 08:57:37;;;;;;;4.40;1.80;;;;;;;25.87;36.31;97387.09;5019078;28;20076;-67
2022/07/17 09:00:03;;;;;;;4.68;1.77;;;;;;;25.84;35.32;97373.97;5007961;28;20045;-63
2022/07/17 09:02:30;;;;;;;3.38;1.42;;;;;;;25.84;36.35;97383.19;4999549;28;20077;-65
2022/07/17 09:04:55;;;;;;;5.18;1.60;;;;;;;24.65;36.05;97366.47;4998576;28;20045;-65
2022/07/17 09:07:21;;;;;;;7.88;1.65;;;;;;;25.00;36.29;97375.81;5002209;28;20048;-66
2022/07/17 09:09:52;;;;;;;4.63;1.55;;;;;;;25.39;35.90;97373.06;5013126;28;20049;-65
2022/07/17 09:12:25;;;;;;;3.97;1.60;;;;;;;25.56;35.26;97373.69;5007414;28;20042;-66
2022/07/17 09:14:50;;;;;;;4.15;1.70;;;;;;;26.06;34.70;97371.25;5001291;28;20042;-66
2022/07/17 09:17:16;;;;;;;4.28;1.60;;;;;;;25.30;33.65;97370.94;4997561;28;20096;-65
2022/07/17 09:19:45;;;;;;;5.10;1.73;;;;;;;26.20;33.01;97370.75;5000025;28;20042;-64
2022/07/17 09:22:13;;;;;;;5.03;1.45;;;;;;;26.87;33.82;97374.34;4996285;28;20065;-64
2022/07/17 09:24:42;;;;;;;3.70;1.30;;;;;;;26.69;33.73;97372.22;5011162;28;20056;-65
2022/07/17 09:27:08;;;;;;;4.22;1.45;;;;;;;26.34;34.28;97366.63;4993613;28;20295;-64
2022/07/17 09:29:34;;;;;;;3.97;1.50;;;;;;;26.66;33.01;97364.69;5004633;28;20625;-66
2022/07/17 09:32:00;;;;;;;4.78;1.42;;;;;;;26.63;32.00;97362.81;5013415;28;20140;-64
2022/07/17 09:34:25;;;;;;;4.72;1.55;;;;;;;25.75;33.15;97364.25;4994741;28;20042;-67
2022/07/17 09:37:01;;;;;;;4.40;1.33;;;;;;;25.98;33.57;97367.91;5002169;28;20071;-66
2022/07/17 09:39:37;;;;;;;4.18;1.50;;;;;;;25.82;34.20;97363.22;4995761;28;20066;-65
2022/07/17 09:42:03;;;;;;;6.15;1.40;;;;;;;25.72;32.93;97367.94;4998833;28;20061;-64
2022/07/17 09:44:29;;;;;;;6.90;1.58;;;;;;;26.52;33.84;97369.59;5008226;28;20079;-66
2022/07/17 09:46:55;;;;;;;3.83;1.70;;;;;;;26.43;32.90;97375.13;5005020;28;20129;-66
2022/07/17 09:49:25;;;;;;;6.07;1.50;;;;;;;25.81;33.50;97381.28;5016473;28;20052;-66
2022/07/17 09:51:51;;;;;;;4.05;1.58;;;;;;;25.60;34.39;97371.56;5027096;28;20616;-65
2022/07/17 09:54:21;;;;;;;2.28;1.40;;;;;;;26.45;33.32;97361.44;5022233;28;20094;-64
2022/07/17 09:56:56;;;;;;;5.53;1.58;;;;;;;26.30;33.84;97374.41;5016353;28;20049;-65
2022/07/17 09:59:21;;;;;;;4.38;1.67;;;;;;;26.13;34.14;97368.19;4999765;28;20041;-65
2022/07/17 10:01:50;;;;;;;6.45;1.40;;;;;;;26.42;33.17;97375.59;5001736;28;20052;-66
2022/07/17 10:04:16;;;;;;;3.15;1.30;;;;;;;26.61;33.05;97376.53;5006484;28;20049;-63
2022/07/17 10:06:43;;;;;;;5.40;1.40;;;;;;;27.17;32.24;97372.00;5026758;28;20034;-64
2022/07/17 10:09:08;;;;;;;3.78;1.83;;;;;;;27.46;32.32;97368.88;5020086;28;20051;-65
2022/07/17 10:11:37;;;;;;;4.90;1.60;;;;;;;27.30;32.52;97380.34;5018658;28;20132;-64
2022/07/17 10:14:10;;;;;;;3.28;1.25;;;;;;;26.17;32.73;97376.50;5008854;28;20041;-62
2022/07/17 10:16:38;;;;;;;6.63;1.65;;;;;;;25.98;33.85;97369.94;5001874;28;20414;-64
2022/07/17 10:19:15;;;;;;;8.07;1.52;;;;;;;27.03;33.14;97378.97;5002399;28;20495;-63
2022/07/17 10:21:55;;;;;;;7.05;1.33;;;;;;;26.62;33.66;97376.06;5005583;28;20049;-64
2022/07/17 10:24:21;;;;;;;7.18;1.70;;;;;;;27.11;32.41;97376.66;5001603;28;20046;-65
2022/07/17 10:26:49;;;;;;;7.93;1.80;;;;;;;27.34;31.82;97369.75;5011258;28;20076;-65
2022/07/17 10:29:37;;;;;;;4.65;1.63;;;;;;;26.55;32.13;97362.25;5003076;28;20407;-65
2022/07/17 10:32:08;;;;;;;5.30;1.77;;;;;;;27.22;32.86;97368.56;5012246;28;20053;-63
2022/07/17 10:34:46;;;;;;;3.67;1.77;;;;;;;28.30;31.58;97362.09;5019518;28;20045;-66
2022/07/17 10:37:28;;;;;;;3.17;1.42;;;;;;;28.43;30.47;97376.03;5003818;28;20076;-66
2022/07/17 10:40:18;;;;;;;5.90;1.77;;;;;;;27.88;30.98;97362.69;5017816;28;20494;-66
2022/07/17 10:42:48;;;;;;;3.53;1.40;;;;;;;26.85;32.44;97352.34;5023849;28;20041;-65
2022/07/17 10:45:25;;;;;;;;;;;;;;;26.74;33.13;97356.78;5020798;28;20038;-65
2022/07/17 10:48:03;;;;;;;3.78;1.73;;;;;;;26.47;32.87;97360.94;5024298;28;19919;-66
2022/07/17 10:50:49;;;;;;;4.80;1.95;;;;;;;26.96;33.18;97368.00;5023417;28;20046;-64
2022/07/17 10:53:24;;;;;;;2.40;1.35;;;;;;;27.68;32.26;97376.41;5020248;28;20037;-64
2022/07/17 10:55:55;;;;;;;2.45;1.38;;;;;;;27.59;31.85;97365.94;5023664;28;20046;-65
2022/07/17 10:58:26;;;;;;;5.18;1.40;;;;;;;28.42;31.02;97355.53;5019117;28;20073;-64
2022/07/17 11:01:14;;;;;;;4.03;1.55;;;;;;;28.79;30.09;97360.34;5023313;28;20037;-64
2022/07/17 11:03:48;;;;;;;3.33;1.63;;;;;;;28.44;30.90;97371.19;5023000;28;20046;-63
2022/07/17 11:06:15;;;;;;;2.90;1.40;;;;;;;26.89;33.82;97355.00;5017937;28;20076;-63
2022/07/17 11:08:42;;;;;;;6.50;1.80;;;;;;;27.33;32.95;97357.72;5024245;28;20084;-65
2022/07/17 11:11:09;;;;;;;5.28;1.48;;;;;;;27.87;31.75;97357.53;5019396;28;20048;-64
2022/07/17 11:13:34;;;;;;;3.47;1.45;;;;;;;27.95;31.14;97356.78;5022696;28;20053;-64
2022/07/17 11:15:59;;;;;;;7.63;1.77;;;;;;;27.45;32.00;97361.66;5023241;28;20044;-65
2022/07/17 11:18:25;;;;;;;3.67;1.45;;;;;;;28.16;31.15;97360.72;5018195;28;20092;-64
2022/07/17 11:20:52;;;;;;;2.33;1.35;;;;;;;27.49;32.27;97367.91;5024144;28;20045;-64
2022/07/17 11:23:19;;;;;;;2.88;1.42;;;;;;;28.44;30.64;97357.88;5017004;28;20052;-65
2022/07/17 11:25:52;;;;;;;6.95;1.27;;;;;;;27.80;30.47;97356.59;5021598;28;20041;-64
2022/07/17 11:28:48;;;;;;;5.00;1.35;;;;;;;27.46;30.81;97352.00;5018115;28;20060;-66
2022/07/17 11:31:26;;;;;;;6.93;1.88;;;;;;;27.63;30.09;97352.50;5021474;28;20433;-65
2022/07/17 11:34:05;;;;;;;4.38;1.38;;;;;;;28.34;30.62;97353.50;5023582;28;20048;-65
2022/07/17 11:36:33;;;;;;;3.28;1.35;;;;;;;28.91;29.02;97361.41;5023087;28;20042;-64
2022/07/17 11:39:02;;;;;;;2.83;1.13;;;;;;;28.35;29.42;97360.69;5022243;28;20124;-64